This is the latest recevied weather packets stored in our database for station/object IN3MWE-10. If no packets are shown the sender has not sent any weather packets the latest 10 day(s).
| Time | Temp. | Humidity | Pressure | Rain* | Wind** | Luminosity | Snow |
|---|---|---|---|---|---|---|---|
| 1788363320 | 37.78° C | 29% | 979.6 hPa | - | - | - | - |
| 1788362420 | 35° C | 29% | 979.7 hPa | - | - | - | - |
| 1788361520 | 38.89° C | 25% | 979.9 hPa | - | - | - | - |
| 1788360620 | 38.33° C | 25% | 979.9 hPa | - | - | - | - |
| 1788359720 | 39.44° C | 25% | 980.1 hPa | - | - | - | - |
| 1788358819 | 37.78° C | 26% | 980.1 hPa | - | - | - | - |
| 1788357919 | 38.33° C | 26% | 980.4 hPa | - | - | - | - |
| 1788357019 | 38.33° C | 25% | 980.6 hPa | - | - | - | - |
| 1788356119 | 35.56° C | 30% | 980.7 hPa | - | - | - | - |
| 1788355219 | 32.78° C | 35% | 981 hPa | - | - | - | - |
| 1788354319 | 32.78° C | 34% | 981.1 hPa | - | - | - | - |
| 1788353418 | 32.22° C | 37% | 981.3 hPa | - | - | - | - |
| 1788352518 | 32.22° C | 36% | 981.5 hPa | - | - | - | - |
| 1788351618 | 30.56° C | 40% | 981.8 hPa | - | - | - | - |
| 1788350718 | 30.56° C | 39% | 981.8 hPa | - | - | - | - |
| 1788349818 | 31.67° C | 38% | 982 hPa | - | - | - | - |
| 1788348918 | 31.67° C | 36% | 982.3 hPa | - | - | - | - |
| 1788348018 | 32.78° C | 34% | 982.6 hPa | - | - | - | - |
| 1788347117 | 36.11° C | 28% | 982.8 hPa | - | - | - | - |
| 1788346217 | 27.78° C | 46% | 983.2 hPa | - | - | - | - |
| 1788345317 | 32.78° C | 34% | 983.3 hPa | - | - | - | - |
| 1788344417 | 31.11° C | 36% | 983.7 hPa | - | - | - | - |
| 1788343517 | 31.67° C | 36% | 983.9 hPa | - | - | - | - |
| 1788342617 | 31.67° C | 37% | 984.2 hPa | - | - | - | - |
| 1788341717 | 31.67° C | 37% | 984.2 hPa | - | - | - | - |
* Rain since midnight (hover to see other rain measurements)
** Current wind speed in m/s (hover to see current wind gust speed)